Sarah Schulte — 5BPA3 — position and weather

sailwx.info

Track history (hours):
 
Tides and Currents Weather Stations Pressure Air Temp Water Temp Dewpoint Dewpoint Depression Visibility Wind Speed Wind Dir Waves Ship Positions

Sarah Schulte

Last reported at 2016-Feb-04 06:31 UTC. Time now 2016-Feb-06 09:20 UTC.
Position N 01°15' E 104°01'.

Length 222 m; draft 10.2 m.

Type: Ship (hazmat cat A). MMSI: 210409000.

Date/timePositionNaut miles runAvg speedWind from/ knotsBaromVisibWave heightAir tempDewpointWater temp
2016-Feb-04 06:31N 01°15' E 104°01'1414.3
2016-Feb-04 05:33N 01°09' E 103°48'5 0.2
2016-Feb-03 01:15N 01°13' E 103°52'  
2016-Jan-30 11:23N 24°14' E 118°13'1313.2
2016-Jan-30 10:25N 24°25' E 118°05'6 6.6
2016-Jan-30 09:33N 24°30' E 118°05'0 0.0
2016-Jan-30 08:32N 24°30' E 118°05'0 0.0
2016-Jan-30 07:33N 24°30' E 118°05'0 0.0
2016-Jan-30 06:32N 24°30' E 118°05'0 0.0
2016-Jan-30 05:32N 24°30' E 118°05'0 0.0
2016-Jan-30 04:33N 24°30' E 118°05'0 0.0
2016-Jan-30 03:33N 24°30' E 118°05'0 0.0
2016-Jan-30 02:33N 24°30' E 118°05'0 0.0
2016-Jan-30 01:33N 24°30' E 118°05'0 0.0
2016-Jan-30 00:34N 24°30' E 118°05'0 0.0
2016-Jan-29 23:33N 24°30' E 118°05'0 0.0
2016-Jan-29 22:33N 24°30' E 118°05'0 0.0
2016-Jan-29 21:28N 24°30' E 118°05'3 2.8
2016-Jan-29 20:32N 24°28' E 118°03'1212.1
2016-Jan-29 19:33N 24°18' E 118°11'397 9.8
2016-Jan-28 03:08N 29°52' E 122°11'17 1.6
2016-Jan-27 16:16N 29°57' E 121°52'84 3.4
2016-Jan-26 15:18N 31°20' E 121°39'1 0.1
2016-Jan-26 04:31N 31°21' E 121°39'  
Track history (hours):
 
Tides and Currents Weather Stations Pressure Air Temp Water Temp Dewpoint Dewpoint Depression Visibility Wind Speed Wind Dir Waves Ship Positions

Sarah Schulte

Last reported at 2016-Feb-04 06:31 UTC. Time now 2016-Feb-06 09:20 UTC.
Position N 01°15' E 104°01'.

Length 222 m; draft 10.2 m.

Type: Ship (hazmat cat A). MMSI: 210409000.

Date/timePositionNaut miles runAvg speedWind from/ knotsBaromVisibWave heightAir tempDewpointWater temp
2016-Feb-04 06:31N 01°15' E 104°01'1414.3
2016-Feb-04 05:33N 01°09' E 103°48'5 0.2
2016-Feb-03 01:15N 01°13' E 103°52'  
2016-Jan-30 11:23N 24°14' E 118°13'1313.2
2016-Jan-30 10:25N 24°25' E 118°05'6 6.6
2016-Jan-30 09:33N 24°30' E 118°05'0 0.0
2016-Jan-30 08:32N 24°30' E 118°05'0 0.0
2016-Jan-30 07:33N 24°30' E 118°05'0 0.0
2016-Jan-30 06:32N 24°30' E 118°05'0 0.0
2016-Jan-30 05:32N 24°30' E 118°05'0 0.0
2016-Jan-30 04:33N 24°30' E 118°05'0 0.0
2016-Jan-30 03:33N 24°30' E 118°05'0 0.0
2016-Jan-30 02:33N 24°30' E 118°05'0 0.0
2016-Jan-30 01:33N 24°30' E 118°05'0 0.0
2016-Jan-30 00:34N 24°30' E 118°05'0 0.0
2016-Jan-29 23:33N 24°30' E 118°05'0 0.0
2016-Jan-29 22:33N 24°30' E 118°05'0 0.0
2016-Jan-29 21:28N 24°30' E 118°05'3 2.8
2016-Jan-29 20:32N 24°28' E 118°03'1212.1
2016-Jan-29 19:33N 24°18' E 118°11'397 9.8
2016-Jan-28 03:08N 29°52' E 122°11'17 1.6
2016-Jan-27 16:16N 29°57' E 121°52'84 3.4
2016-Jan-26 15:18N 31°20' E 121°39'1 0.1
2016-Jan-26 04:31N 31°21' E 121°39'  

Dump ship's entire track history